sensor_id;sensor_type;location;lat;lon;timestamp;P1;durP1;ratioP1;P2;durP2;ratioP2
12151;SDS011;6139;51.274;7.128;2023-03-23T00:00:17;4.80;;;3.20;;
12151;SDS011;6139;51.274;7.128;2023-03-23T00:01:20;5.38;;;3.30;;
12151;SDS011;6139;51.274;7.128;2023-03-23T00:02:23;5.28;;;3.67;;
12151;SDS011;6139;51.274;7.128;2023-03-23T00:03:25;5.40;;;3.50;;
12151;SDS011;6139;51.274;7.128;2023-03-23T00:04:29;5.03;;;3.67;;
12151;SDS011;6139;51.274;7.128;2023-03-23T00:05:30;6.45;;;3.25;;
12151;SDS011;6139;51.274;7.128;2023-03-23T00:06:31;3.88;;;3.50;;
12151;SDS011;6139;51.274;7.128;2023-03-23T00:07:34;8.65;;;3.20;;
12151;SDS011;6139;51.274;7.128;2023-03-23T00:08:36;4.45;;;3.55;;
12151;SDS011;6139;51.274;7.128;2023-03-23T00:09:45;5.43;;;2.92;;
12151;SDS011;6139;51.274;7.128;2023-03-23T00:10:50;4.15;;;3.13;;
12151;SDS011;6139;51.274;7.128;2023-03-23T00:11:52;5.18;;;2.85;;
12151;SDS011;6139;51.274;7.128;2023-03-23T00:12:57;3.92;;;3.17;;
12151;SDS011;6139;51.274;7.128;2023-03-23T00:14:02;3.83;;;3.00;;
12151;SDS011;6139;51.274;7.128;2023-03-23T00:15:04;5.07;;;3.22;;
12151;SDS011;6139;51.274;7.128;2023-03-23T00:16:07;4.38;;;2.70;;
12151;SDS011;6139;51.274;7.128;2023-03-23T00:17:17;4.25;;;3.08;;
12151;SDS011;6139;51.274;7.128;2023-03-23T00:18:19;4.88;;;3.28;;
12151;SDS011;6139;51.274;7.128;2023-03-23T00:19:23;4.75;;;3.00;;
12151;SDS011;6139;51.274;7.128;2023-03-23T00:20:25;5.28;;;2.78;;
12151;SDS011;6139;51.274;7.128;2023-03-23T00:21:30;4.05;;;2.70;;
12151;SDS011;6139;51.274;7.128;2023-03-23T00:22:36;2.83;;;2.55;;
12151;SDS011;6139;51.274;7.128;2023-03-23T00:23:37;3.88;;;2.80;;
12151;SDS011;6139;51.274;7.128;2023-03-23T00:24:40;4.43;;;2.80;;
12151;SDS011;6139;51.274;7.128;2023-03-23T00:25:41;3.58;;;2.78;;
12151;SDS011;6139;51.274;7.128;2023-03-23T00:26:45;3.80;;;2.63;;
12151;SDS011;6139;51.274;7.128;2023-03-23T00:27:47;4.65;;;3.00;;
12151;SDS011;6139;51.274;7.128;2023-03-23T00:28:49;3.38;;;2.88;;
12151;SDS011;6139;51.274;7.128;2023-03-23T00:29:51;5.55;;;3.20;;
12151;SDS011;6139;51.274;7.128;2023-03-23T00:30:54;3.60;;;2.78;;
12151;SDS011;6139;51.274;7.128;2023-03-23T00:31:56;3.15;;;2.80;;
12151;SDS011;6139;51.274;7.128;2023-03-23T00:32:58;2.75;;;2.20;;
12151;SDS011;6139;51.274;7.128;2023-03-23T00:33:59;3.22;;;2.78;;
12151;SDS011;6139;51.274;7.128;2023-03-23T00:35:04;4.53;;;2.80;;
12151;SDS011;6139;51.274;7.128;2023-03-23T00:36:07;3.88;;;2.50;;
12151;SDS011;6139;51.274;7.128;2023-03-23T00:37:10;3.47;;;2.50;;
12151;SDS011;6139;51.274;7.128;2023-03-23T00:38:11;4.38;;;2.65;;
12151;SDS011;6139;51.274;7.128;2023-03-23T00:39:13;4.03;;;2.40;;
12151;SDS011;6139;51.274;7.128;2023-03-23T00:40:16;5.05;;;3.00;;
12151;SDS011;6139;51.274;7.128;2023-03-23T00:41:18;5.15;;;2.95;;
12151;SDS011;6139;51.274;7.128;2023-03-23T00:42:21;4.57;;;2.50;;
12151;SDS011;6139;51.274;7.128;2023-03-23T00:43:23;5.25;;;3.20;;
12151;SDS011;6139;51.274;7.128;2023-03-23T00:44:24;3.95;;;2.53;;
12151;SDS011;6139;51.274;7.128;2023-03-23T00:45:26;2.83;;;2.60;;
12151;SDS011;6139;51.274;7.128;2023-03-23T00:46:27;4.63;;;2.47;;
12151;SDS011;6139;51.274;7.128;2023-03-23T00:47:29;3.88;;;2.53;;
12151;SDS011;6139;51.274;7.128;2023-03-23T00:48:31;3.97;;;2.88;;
12151;SDS011;6139;51.274;7.128;2023-03-23T00:49:36;6.13;;;2.83;;
12151;SDS011;6139;51.274;7.128;2023-03-23T00:50:38;3.50;;;2.70;;
12151;SDS011;6139;51.274;7.128;2023-03-23T00:51:40;3.25;;;2.40;;
12151;SDS011;6139;51.274;7.128;2023-03-23T00:52:43;4.63;;;2.70;;
12151;SDS011;6139;51.274;7.128;2023-03-23T00:53:44;3.28;;;2.60;;
12151;SDS011;6139;51.274;7.128;2023-03-23T00:54:46;3.00;;;2.58;;
12151;SDS011;6139;51.274;7.128;2023-03-23T00:55:49;3.10;;;2.58;;
12151;SDS011;6139;51.274;7.128;2023-03-23T00:56:51;5.18;;;2.53;;
12151;SDS011;6139;51.274;7.128;2023-03-23T00:57:54;3.42;;;2.60;;
12151;SDS011;6139;51.274;7.128;2023-03-23T00:58:56;4.28;;;2.70;;
12151;SDS011;6139;51.274;7.128;2023-03-23T00:59:57;3.00;;;2.50;;
12151;SDS011;6139;51.274;7.128;2023-03-23T01:00:59;4.00;;;2.55;;
12151;SDS011;6139;51.274;7.128;2023-03-23T01:02:00;3.55;;;2.53;;
12151;SDS011;6139;51.274;7.128;2023-03-23T01:03:02;3.00;;;2.42;;
12151;SDS011;6139;51.274;7.128;2023-03-23T01:04:04;3.30;;;2.30;;
12151;SDS011;6139;51.274;7.128;2023-03-23T01:05:06;4.68;;;2.85;;
12151;SDS011;6139;51.274;7.128;2023-03-23T01:06:09;3.80;;;2.40;;
12151;SDS011;6139;51.274;7.128;2023-03-23T01:07:16;3.88;;;2.40;;
12151;SDS011;6139;51.274;7.128;2023-03-23T01:08:18;6.10;;;2.40;;
12151;SDS011;6139;51.274;7.128;2023-03-23T01:09:21;3.60;;;2.85;;
12151;SDS011;6139;51.274;7.128;2023-03-23T01:10:22;3.58;;;2.58;;
12151;SDS011;6139;51.274;7.128;2023-03-23T01:11:26;6.65;;;3.83;;
12151;SDS011;6139;51.274;7.128;2023-03-23T01:12:27;2.85;;;2.60;;
12151;SDS011;6139;51.274;7.128;2023-03-23T01:13:31;3.22;;;2.85;;
12151;SDS011;6139;51.274;7.128;2023-03-23T01:14:33;3.42;;;2.40;;
12151;SDS011;6139;51.274;7.128;2023-03-23T01:15:35;5.72;;;2.53;;
12151;SDS011;6139;51.274;7.128;2023-03-23T01:16:36;4.18;;;2.90;;
12151;SDS011;6139;51.274;7.128;2023-03-23T01:17:38;3.17;;;2.30;;
12151;SDS011;6139;51.274;7.128;2023-03-23T01:18:39;3.30;;;2.80;;
12151;SDS011;6139;51.274;7.128;2023-03-23T01:19:41;3.30;;;2.40;;
12151;SDS011;6139;51.274;7.128;2023-03-23T01:20:42;4.55;;;2.75;;
12151;SDS011;6139;51.274;7.128;2023-03-23T01:21:44;2.78;;;2.38;;
12151;SDS011;6139;51.274;7.128;2023-03-23T01:22:46;4.43;;;2.78;;
12151;SDS011;6139;51.274;7.128;2023-03-23T01:23:48;4.28;;;2.80;;
12151;SDS011;6139;51.274;7.128;2023-03-23T01:24:49;3.05;;;2.75;;
12151;SDS011;6139;51.274;7.128;2023-03-23T01:25:51;2.70;;;2.45;;
12151;SDS011;6139;51.274;7.128;2023-03-23T01:26:54;3.70;;;2.50;;
12151;SDS011;6139;51.274;7.128;2023-03-23T01:27:57;3.53;;;2.60;;
12151;SDS011;6139;51.274;7.128;2023-03-23T01:29:00;2.35;;;2.15;;
12151;SDS011;6139;51.274;7.128;2023-03-23T01:30:02;2.97;;;2.58;;
12151;SDS011;6139;51.274;7.128;2023-03-23T01:31:05;3.63;;;2.28;;
12151;SDS011;6139;51.274;7.128;2023-03-23T01:32:10;3.70;;;2.65;;
12151;SDS011;6139;51.274;7.128;2023-03-23T01:33:11;5.40;;;2.60;;
12151;SDS011;6139;51.274;7.128;2023-03-23T01:34:13;2.80;;;2.53;;
12151;SDS011;6139;51.274;7.128;2023-03-23T01:35:14;3.10;;;2.70;;
12151;SDS011;6139;51.274;7.128;2023-03-23T01:36:17;3.10;;;2.28;;
12151;SDS011;6139;51.274;7.128;2023-03-23T01:37:21;3.40;;;2.38;;
12151;SDS011;6139;51.274;7.128;2023-03-23T01:38:26;3.72;;;2.70;;
12151;SDS011;6139;51.274;7.128;2023-03-23T01:39:27;2.80;;;2.40;;
12151;SDS011;6139;51.274;7.128;2023-03-23T01:40:29;2.80;;;2.50;;
12151;SDS011;6139;51.274;7.128;2023-03-23T01:41:30;4.13;;;2.58;;
12151;SDS011;6139;51.274;7.128;2023-03-23T01:42:37;3.67;;;2.80;;
12151;SDS011;6139;51.274;7.128;2023-03-23T01:43:57;2.95;;;2.55;;
12151;SDS011;6139;51.274;7.128;2023-03-23T01:46:31;3.88;;;2.47;;
12151;SDS011;6139;51.274;7.128;2023-03-23T01:47:34;3.15;;;2.72;;
12151;SDS011;6139;51.274;7.128;2023-03-23T01:48:35;4.97;;;2.70;;
12151;SDS011;6139;51.274;7.128;2023-03-23T01:49:39;3.33;;;2.60;;
12151;SDS011;6139;51.274;7.128;2023-03-23T01:50:47;5.00;;;2.58;;
12151;SDS011;6139;51.274;7.128;2023-03-23T01:51:55;2.70;;;2.50;;
12151;SDS011;6139;51.274;7.128;2023-03-23T01:53:00;8.60;;;2.80;;
12151;SDS011;6139;51.274;7.128;2023-03-23T01:54:05;4.47;;;2.63;;
12151;SDS011;6139;51.274;7.128;2023-03-23T01:55:08;3.63;;;2.58;;
12151;SDS011;6139;51.274;7.128;2023-03-23T01:56:11;5.38;;;2.60;;
12151;SDS011;6139;51.274;7.128;2023-03-23T01:57:16;3.92;;;2.90;;
12151;SDS011;6139;51.274;7.128;2023-03-23T01:58:21;4.05;;;2.88;;
12151;SDS011;6139;51.274;7.128;2023-03-23T01:59:29;2.67;;;2.47;;
12151;SDS011;6139;51.274;7.128;2023-03-23T02:00:53;3.58;;;2.75;;
12151;SDS011;6139;51.274;7.128;2023-03-23T02:01:59;3.75;;;2.78;;
12151;SDS011;6139;51.274;7.128;2023-03-23T02:03:01;4.82;;;3.03;;
12151;SDS011;6139;51.274;7.128;2023-03-23T02:04:07;3.53;;;2.80;;
12151;SDS011;6139;51.274;7.128;2023-03-23T02:05:11;3.53;;;3.22;;
12151;SDS011;6139;51.274;7.128;2023-03-23T02:06:16;4.25;;;2.80;;
12151;SDS011;6139;51.274;7.128;2023-03-23T02:07:36;5.32;;;3.40;;
12151;SDS011;6139;51.274;7.128;2023-03-23T02:08:39;3.47;;;2.97;;
12151;SDS011;6139;51.274;7.128;2023-03-23T02:09:43;6.18;;;3.00;;
12151;SDS011;6139;51.274;7.128;2023-03-23T02:10:45;3.03;;;2.72;;
12151;SDS011;6139;51.274;7.128;2023-03-23T02:11:47;3.53;;;3.22;;
12151;SDS011;6139;51.274;7.128;2023-03-23T02:12:50;5.85;;;3.03;;
12151;SDS011;6139;51.274;7.128;2023-03-23T02:13:51;4.97;;;3.22;;
12151;SDS011;6139;51.274;7.128;2023-03-23T02:14:55;5.03;;;3.40;;
12151;SDS011;6139;51.274;7.128;2023-03-23T02:15:59;4.40;;;3.42;;
12151;SDS011;6139;51.274;7.128;2023-03-23T02:17:08;4.60;;;3.05;;
12151;SDS011;6139;51.274;7.128;2023-03-23T02:18:25;4.40;;;3.03;;
12151;SDS011;6139;51.274;7.128;2023-03-23T02:19:48;4.07;;;2.85;;
12151;SDS011;6139;51.274;7.128;2023-03-23T02:21:10;3.50;;;3.10;;
12151;SDS011;6139;51.274;7.128;2023-03-23T02:22:35;4.55;;;3.38;;
12151;SDS011;6139;51.274;7.128;2023-03-23T02:25:44;4.25;;;3.10;;
12151;SDS011;6139;51.274;7.128;2023-03-23T02:27:00;3.67;;;3.28;;
12151;SDS011;6139;51.274;7.128;2023-03-23T02:29:55;4.28;;;3.33;;
12151;SDS011;6139;51.274;7.128;2023-03-23T02:31:18;6.25;;;3.15;;
12151;SDS011;6139;51.274;7.128;2023-03-23T02:32:35;3.83;;;3.08;;
12151;SDS011;6139;51.274;7.128;2023-03-23T02:33:49;4.85;;;3.20;;
12151;SDS011;6139;51.274;7.128;2023-03-23T02:34:56;3.60;;;2.78;;
12151;SDS011;6139;51.274;7.128;2023-03-23T02:36:02;3.90;;;3.03;;
12151;SDS011;6139;51.274;7.128;2023-03-23T02:37:08;3.97;;;3.45;;
12151;SDS011;6139;51.274;7.128;2023-03-23T02:38:15;3.50;;;3.20;;
12151;SDS011;6139;51.274;7.128;2023-03-23T02:39:21;4.25;;;3.45;;
12151;SDS011;6139;51.274;7.128;2023-03-23T02:40:27;6.07;;;3.33;;
12151;SDS011;6139;51.274;7.128;2023-03-23T02:41:34;3.83;;;2.90;;
12151;SDS011;6139;51.274;7.128;2023-03-23T02:42:41;4.20;;;3.25;;
12151;SDS011;6139;51.274;7.128;2023-03-23T02:43:44;4.10;;;3.30;;
12151;SDS011;6139;51.274;7.128;2023-03-23T02:44:48;3.38;;;3.05;;
12151;SDS011;6139;51.274;7.128;2023-03-23T02:45:50;4.72;;;3.22;;
12151;SDS011;6139;51.274;7.128;2023-03-23T02:46:54;5.75;;;3.30;;
12151;SDS011;6139;51.274;7.128;2023-03-23T02:47:56;3.10;;;2.80;;
12151;SDS011;6139;51.274;7.128;2023-03-23T02:49:01;4.22;;;3.03;;
12151;SDS011;6139;51.274;7.128;2023-03-23T02:50:04;3.88;;;3.08;;
12151;SDS011;6139;51.274;7.128;2023-03-23T02:51:10;3.63;;;3.20;;
12151;SDS011;6139;51.274;7.128;2023-03-23T02:52:14;7.35;;;3.22;;
12151;SDS011;6139;51.274;7.128;2023-03-23T02:53:22;3.47;;;2.70;;
12151;SDS011;6139;51.274;7.128;2023-03-23T02:54:26;3.63;;;2.85;;
12151;SDS011;6139;51.274;7.128;2023-03-23T02:55:29;3.23;;;2.77;;
12151;SDS011;6139;51.274;7.128;2023-03-23T02:56:35;4.25;;;2.95;;
12151;SDS011;6139;51.274;7.128;2023-03-23T02:57:43;4.20;;;3.05;;
12151;SDS011;6139;51.274;7.128;2023-03-23T02:58:47;3.33;;;3.00;;
12151;SDS011;6139;51.274;7.128;2023-03-23T02:59:49;4.20;;;3.03;;
12151;SDS011;6139;51.274;7.128;2023-03-23T03:00:51;3.35;;;2.78;;
12151;SDS011;6139;51.274;7.128;2023-03-23T03:01:55;3.70;;;3.15;;
12151;SDS011;6139;51.274;7.128;2023-03-23T03:03:02;2.70;;;2.50;;
12151;SDS011;6139;51.274;7.128;2023-03-23T03:04:07;3.67;;;2.70;;
12151;SDS011;6139;51.274;7.128;2023-03-23T03:05:15;2.88;;;2.55;;
12151;SDS011;6139;51.274;7.128;2023-03-23T03:06:30;2.80;;;2.45;;
12151;SDS011;6139;51.274;7.128;2023-03-23T03:07:43;4.65;;;2.63;;
12151;SDS011;6139;51.274;7.128;2023-03-23T03:08:56;4.70;;;2.63;;
12151;SDS011;6139;51.274;7.128;2023-03-23T03:10:04;3.17;;;2.60;;
12151;SDS011;6139;51.274;7.128;2023-03-23T03:11:13;2.67;;;2.47;;
12151;SDS011;6139;51.274;7.128;2023-03-23T03:12:18;4.32;;;2.85;;
12151;SDS011;6139;51.274;7.128;2023-03-23T03:13:28;3.05;;;2.65;;
12151;SDS011;6139;51.274;7.128;2023-03-23T03:14:39;4.32;;;2.70;;
12151;SDS011;6139;51.274;7.128;2023-03-23T03:15:45;2.70;;;2.50;;
12151;SDS011;6139;51.274;7.128;2023-03-23T03:16:56;4.05;;;2.70;;
12151;SDS011;6139;51.274;7.128;2023-03-23T03:18:07;3.40;;;2.50;;
12151;SDS011;6139;51.274;7.128;2023-03-23T03:19:16;3.00;;;2.70;;
12151;SDS011;6139;51.274;7.128;2023-03-23T03:20:21;5.97;;;2.75;;
12151;SDS011;6139;51.274;7.128;2023-03-23T03:21:26;3.67;;;2.60;;
12151;SDS011;6139;51.274;7.128;2023-03-23T03:22:32;3.47;;;2.90;;
12151;SDS011;6139;51.274;7.128;2023-03-23T03:23:37;3.38;;;3.00;;
12151;SDS011;6139;51.274;7.128;2023-03-23T03:24:43;2.70;;;2.50;;
12151;SDS011;6139;51.274;7.128;2023-03-23T03:25:47;3.43;;;2.80;;
12151;SDS011;6139;51.274;7.128;2023-03-23T03:26:57;3.50;;;2.40;;
12151;SDS011;6139;51.274;7.128;2023-03-23T03:28:16;2.50;;;2.30;;
12151;SDS011;6139;51.274;7.128;2023-03-23T03:29:22;4.77;;;2.93;;
12151;SDS011;6139;51.274;7.128;2023-03-23T03:30:28;4.13;;;2.72;;
12151;SDS011;6139;51.274;7.128;2023-03-23T03:31:36;3.10;;;2.60;;
12151;SDS011;6139;51.274;7.128;2023-03-23T03:32:41;2.95;;;2.50;;
12151;SDS011;6139;51.274;7.128;2023-03-23T03:33:49;3.80;;;2.70;;
12151;SDS011;6139;51.274;7.128;2023-03-23T03:34:52;3.05;;;2.72;;
12151;SDS011;6139;51.274;7.128;2023-03-23T03:35:54;3.45;;;2.50;;
12151;SDS011;6139;51.274;7.128;2023-03-23T03:36:57;3.30;;;2.63;;
12151;SDS011;6139;51.274;7.128;2023-03-23T03:38:04;4.95;;;2.65;;
12151;SDS011;6139;51.274;7.128;2023-03-23T03:39:07;2.90;;;2.60;;
12151;SDS011;6139;51.274;7.128;2023-03-23T03:40:12;2.88;;;2.67;;
12151;SDS011;6139;51.274;7.128;2023-03-23T03:41:15;3.13;;;2.70;;
12151;SDS011;6139;51.274;7.128;2023-03-23T03:42:19;3.00;;;2.60;;
12151;SDS011;6139;51.274;7.128;2023-03-23T03:43:21;4.13;;;2.70;;
12151;SDS011;6139;51.274;7.128;2023-03-23T03:44:23;3.35;;;2.33;;
12151;SDS011;6139;51.274;7.128;2023-03-23T03:45:24;2.60;;;2.40;;
12151;SDS011;6139;51.274;7.128;2023-03-23T03:46:26;3.78;;;2.50;;
12151;SDS011;6139;51.274;7.128;2023-03-23T03:47:30;3.00;;;2.50;;
12151;SDS011;6139;51.274;7.128;2023-03-23T03:48:32;2.60;;;2.33;;
12151;SDS011;6139;51.274;7.128;2023-03-23T03:49:33;2.50;;;2.20;;
12151;SDS011;6139;51.274;7.128;2023-03-23T03:50:37;3.85;;;2.38;;
12151;SDS011;6139;51.274;7.128;2023-03-23T03:51:38;3.00;;;2.55;;
12151;SDS011;6139;51.274;7.128;2023-03-23T03:52:45;2.70;;;2.50;;
12151;SDS011;6139;51.274;7.128;2023-03-23T03:53:47;3.03;;;2.65;;
12151;SDS011;6139;51.274;7.128;2023-03-23T03:54:49;3.30;;;3.00;;
12151;SDS011;6139;51.274;7.128;2023-03-23T03:55:51;4.40;;;2.78;;
12151;SDS011;6139;51.274;7.128;2023-03-23T03:56:55;4.18;;;2.58;;
12151;SDS011;6139;51.274;7.128;2023-03-23T03:58:16;3.13;;;2.53;;
12151;SDS011;6139;51.274;7.128;2023-03-23T03:59:37;2.92;;;2.60;;
12151;SDS011;6139;51.274;7.128;2023-03-23T04:00:47;2.78;;;2.45;;
12151;SDS011;6139;51.274;7.128;2023-03-23T04:01:53;2.55;;;2.30;;
12151;SDS011;6139;51.274;7.128;2023-03-23T04:02:55;4.13;;;3.00;;
12151;SDS011;6139;51.274;7.128;2023-03-23T04:04:17;3.15;;;2.33;;
12151;SDS011;6139;51.274;7.128;2023-03-23T04:05:18;3.65;;;2.38;;
12151;SDS011;6139;51.274;7.128;2023-03-23T04:06:25;3.17;;;2.67;;
12151;SDS011;6139;51.274;7.128;2023-03-23T04:07:28;3.83;;;2.30;;
12151;SDS011;6139;51.274;7.128;2023-03-23T04:08:31;4.57;;;2.70;;
12151;SDS011;6139;51.274;7.128;2023-03-23T04:09:32;3.25;;;2.70;;
12151;SDS011;6139;51.274;7.128;2023-03-23T04:10:34;3.20;;;2.35;;
12151;SDS011;6139;51.274;7.128;2023-03-23T04:11:36;4.60;;;2.60;;
12151;SDS011;6139;51.274;7.128;2023-03-23T04:13:11;2.33;;;2.00;;
12151;SDS011;6139;51.274;7.128;2023-03-23T04:14:33;3.42;;;2.78;;
12151;SDS011;6139;51.274;7.128;2023-03-23T04:15:34;2.50;;;2.30;;
12151;SDS011;6139;51.274;7.128;2023-03-23T04:16:36;2.70;;;2.35;;
12151;SDS011;6139;51.274;7.128;2023-03-23T04:17:37;3.10;;;2.28;;
12151;SDS011;6139;51.274;7.128;2023-03-23T04:18:41;2.60;;;2.40;;
12151;SDS011;6139;51.274;7.128;2023-03-23T04:19:44;2.70;;;2.50;;
12151;SDS011;6139;51.274;7.128;2023-03-23T04:20:48;3.20;;;2.40;;
12151;SDS011;6139;51.274;7.128;2023-03-23T04:21:54;3.80;;;2.63;;
12151;SDS011;6139;51.274;7.128;2023-03-23T04:22:58;3.38;;;2.20;;
12151;SDS011;6139;51.274;7.128;2023-03-23T04:24:01;3.13;;;2.70;;
12151;SDS011;6139;51.274;7.128;2023-03-23T04:25:03;4.13;;;2.28;;
12151;SDS011;6139;51.274;7.128;2023-03-23T04:26:09;3.28;;;2.65;;
12151;SDS011;6139;51.274;7.128;2023-03-23T04:27:15;2.72;;;2.30;;
12151;SDS011;6139;51.274;7.128;2023-03-23T04:28:17;4.22;;;2.50;;
12151;SDS011;6139;51.274;7.128;2023-03-23T04:29:39;2.33;;;2.13;;
12151;SDS011;6139;51.274;7.128;2023-03-23T04:31:04;3.13;;;2.47;;
12151;SDS011;6139;51.274;7.128;2023-03-23T04:32:06;2.38;;;2.17;;
12151;SDS011;6139;51.274;7.128;2023-03-23T04:33:12;2.55;;;2.20;;
12151;SDS011;6139;51.274;7.128;2023-03-23T04:34:19;3.47;;;2.70;;
12151;SDS011;6139;51.274;7.128;2023-03-23T04:35:23;3.15;;;2.40;;
12151;SDS011;6139;51.274;7.128;2023-03-23T04:36:36;2.85;;;2.45;;
12151;SDS011;6139;51.274;7.128;2023-03-23T04:37:51;4.13;;;2.70;;
12151;SDS011;6139;51.274;7.128;2023-03-23T04:38:54;3.00;;;2.60;;
12151;SDS011;6139;51.274;7.128;2023-03-23T04:39:58;3.67;;;2.40;;
12151;SDS011;6139;51.274;7.128;2023-03-23T04:41:02;3.33;;;2.60;;
12151;SDS011;6139;51.274;7.128;2023-03-23T04:42:27;2.67;;;2.30;;
12151;SDS011;6139;51.274;7.128;2023-03-23T04:43:56;3.13;;;2.15;;
12151;SDS011;6139;51.274;7.128;2023-03-23T04:45:08;2.80;;;2.20;;
12151;SDS011;6139;51.274;7.128;2023-03-23T04:46:11;2.72;;;2.15;;
12151;SDS011;6139;51.274;7.128;2023-03-23T04:47:18;2.70;;;2.08;;
12151;SDS011;6139;51.274;7.128;2023-03-23T04:48:27;3.55;;;2.22;;
12151;SDS011;6139;51.274;7.128;2023-03-23T04:49:45;2.33;;;2.03;;
12151;SDS011;6139;51.274;7.128;2023-03-23T04:50:57;2.53;;;2.30;;
12151;SDS011;6139;51.274;7.128;2023-03-23T04:52:03;2.17;;;1.98;;
12151;SDS011;6139;51.274;7.128;2023-03-23T04:53:17;2.30;;;2.10;;
12151;SDS011;6139;51.274;7.128;2023-03-23T04:54:20;2.45;;;2.00;;
12151;SDS011;6139;51.274;7.128;2023-03-23T04:55:26;2.50;;;2.30;;
12151;SDS011;6139;51.274;7.128;2023-03-23T04:56:31;2.25;;;2.05;;
12151;SDS011;6139;51.274;7.128;2023-03-23T04:57:38;2.65;;;2.20;;
12151;SDS011;6139;51.274;7.128;2023-03-23T04:58:59;3.17;;;2.00;;
12151;SDS011;6139;51.274;7.128;2023-03-23T05:00:27;2.80;;;2.50;;
12151;SDS011;6139;51.274;7.128;2023-03-23T05:01:30;2.20;;;2.00;;
12151;SDS011;6139;51.274;7.128;2023-03-23T05:02:52;3.33;;;1.95;;
12151;SDS011;6139;51.274;7.128;2023-03-23T05:03:56;2.60;;;2.20;;
12151;SDS011;6139;51.274;7.128;2023-03-23T05:04:57;3.85;;;2.10;;
12151;SDS011;6139;51.274;7.128;2023-03-23T05:06:02;2.92;;;2.22;;
12151;SDS011;6139;51.274;7.128;2023-03-23T05:07:04;2.58;;;2.22;;
12151;SDS011;6139;51.274;7.128;2023-03-23T05:08:10;2.58;;;2.33;;
12151;SDS011;6139;51.274;7.128;2023-03-23T05:09:16;3.80;;;2.20;;
12151;SDS011;6139;51.274;7.128;2023-03-23T05:10:17;4.03;;;2.03;;
12151;SDS011;6139;51.274;7.128;2023-03-23T05:11:20;2.92;;;2.35;;
12151;SDS011;6139;51.274;7.128;2023-03-23T05:12:21;2.22;;;2.00;;
12151;SDS011;6139;51.274;7.128;2023-03-23T05:13:34;3.25;;;2.10;;
12151;SDS011;6139;51.274;7.128;2023-03-23T05:14:35;2.42;;;2.22;;
12151;SDS011;6139;51.274;7.128;2023-03-23T05:15:43;2.40;;;2.05;;
12151;SDS011;6139;51.274;7.128;2023-03-23T05:16:46;3.25;;;2.28;;
12151;SDS011;6139;51.274;7.128;2023-03-23T05:17:50;3.67;;;2.30;;
12151;SDS011;6139;51.274;7.128;2023-03-23T05:18:54;3.97;;;2.35;;
12151;SDS011;6139;51.274;7.128;2023-03-23T05:19:57;3.63;;;2.10;;
12151;SDS011;6139;51.274;7.128;2023-03-23T05:21:08;3.55;;;2.30;;
12151;SDS011;6139;51.274;7.128;2023-03-23T05:22:13;2.75;;;2.50;;
12151;SDS011;6139;51.274;7.128;2023-03-23T05:23:20;2.90;;;2.20;;
12151;SDS011;6139;51.274;7.128;2023-03-23T05:24:27;2.30;;;2.10;;
12151;SDS011;6139;51.274;7.128;2023-03-23T05:25:35;2.10;;;1.90;;
12151;SDS011;6139;51.274;7.128;2023-03-23T05:26:51;2.30;;;1.90;;
12151;SDS011;6139;51.274;7.128;2023-03-23T05:27:57;2.72;;;2.20;;
12151;SDS011;6139;51.274;7.128;2023-03-23T05:29:21;3.92;;;2.40;;
12151;SDS011;6139;51.274;7.128;2023-03-23T05:30:31;2.53;;;2.15;;
12151;SDS011;6139;51.274;7.128;2023-03-23T05:31:32;2.92;;;2.50;;
12151;SDS011;6139;51.274;7.128;2023-03-23T05:32:35;4.18;;;2.30;;
12151;SDS011;6139;51.274;7.128;2023-03-23T05:33:52;2.53;;;2.17;;
12151;SDS011;6139;51.274;7.128;2023-03-23T05:35:00;3.22;;;2.42;;
12151;SDS011;6139;51.274;7.128;2023-03-23T05:36:01;2.53;;;2.33;;
12151;SDS011;6139;51.274;7.128;2023-03-23T05:37:10;2.95;;;2.60;;
12151;SDS011;6139;51.274;7.128;2023-03-23T05:38:35;2.85;;;2.20;;
12151;SDS011;6139;51.274;7.128;2023-03-23T05:39:42;2.25;;;2.05;;
12151;SDS011;6139;51.274;7.128;2023-03-23T05:40:59;4.25;;;2.40;;
12151;SDS011;6139;51.274;7.128;2023-03-23T05:42:03;2.55;;;2.20;;
12151;SDS011;6139;51.274;7.128;2023-03-23T05:43:16;5.22;;;2.75;;
12151;SDS011;6139;51.274;7.128;2023-03-23T05:44:38;2.97;;;2.40;;
12151;SDS011;6139;51.274;7.128;2023-03-23T05:45:40;3.08;;;2.60;;
12151;SDS011;6139;51.274;7.128;2023-03-23T05:46:41;2.50;;;2.22;;
12151;SDS011;6139;51.274;7.128;2023-03-23T05:47:43;2.88;;;2.25;;
12151;SDS011;6139;51.274;7.128;2023-03-23T05:48:51;2.70;;;2.30;;
12151;SDS011;6139;51.274;7.128;2023-03-23T05:49:56;2.50;;;2.30;;
12151;SDS011;6139;51.274;7.128;2023-03-23T05:51:00;2.80;;;2.50;;
12151;SDS011;6139;51.274;7.128;2023-03-23T05:52:03;3.38;;;2.45;;
12151;SDS011;6139;51.274;7.128;2023-03-23T05:53:05;2.58;;;2.30;;
12151;SDS011;6139;51.274;7.128;2023-03-23T05:54:08;2.60;;;2.40;;
12151;SDS011;6139;51.274;7.128;2023-03-23T05:55:13;3.97;;;2.40;;
12151;SDS011;6139;51.274;7.128;2023-03-23T05:56:17;2.75;;;2.50;;
12151;SDS011;6139;51.274;7.128;2023-03-23T05:57:34;3.08;;;2.78;;
12151;SDS011;6139;51.274;7.128;2023-03-23T05:58:42;2.67;;;2.40;;
12151;SDS011;6139;51.274;7.128;2023-03-23T05:59:44;3.40;;;2.75;;
12151;SDS011;6139;51.274;7.128;2023-03-23T06:00:52;4.13;;;2.50;;
12151;SDS011;6139;51.274;7.128;2023-03-23T06:02:00;3.13;;;2.42;;
12151;SDS011;6139;51.274;7.128;2023-03-23T06:03:01;2.75;;;2.50;;
12151;SDS011;6139;51.274;7.128;2023-03-23T06:04:24;3.23;;;2.67;;
12151;SDS011;6139;51.274;7.128;2023-03-23T06:05:42;3.45;;;2.53;;
12151;SDS011;6139;51.274;7.128;2023-03-23T06:06:44;3.45;;;2.78;;
12151;SDS011;6139;51.274;7.128;2023-03-23T06:07:46;2.67;;;2.47;;
12151;SDS011;6139;51.274;7.128;2023-03-23T06:08:47;2.97;;;2.63;;
12151;SDS011;6139;51.274;7.128;2023-03-23T06:09:51;4.97;;;3.20;;
12151;SDS011;6139;51.274;7.128;2023-03-23T06:11:00;4.57;;;2.50;;
12151;SDS011;6139;51.274;7.128;2023-03-23T06:12:03;3.20;;;2.60;;
12151;SDS011;6139;51.274;7.128;2023-03-23T06:13:18;3.38;;;3.08;;
12151;SDS011;6139;51.274;7.128;2023-03-23T06:14:22;2.70;;;2.50;;
12151;SDS011;6139;51.274;7.128;2023-03-23T06:15:23;3.00;;;2.70;;
12151;SDS011;6139;51.274;7.128;2023-03-23T06:16:45;2.80;;;2.55;;
12151;SDS011;6139;51.274;7.128;2023-03-23T06:17:48;2.53;;;2.33;;
12151;SDS011;6139;51.274;7.128;2023-03-23T06:18:56;5.32;;;2.72;;
12151;SDS011;6139;51.274;7.128;2023-03-23T06:20:04;3.20;;;2.70;;
12151;SDS011;6139;51.274;7.128;2023-03-23T06:21:12;3.33;;;2.75;;
12151;SDS011;6139;51.274;7.128;2023-03-23T06:22:35;3.08;;;2.70;;
12151;SDS011;6139;51.274;7.128;2023-03-23T06:23:43;3.25;;;2.95;;
12151;SDS011;6139;51.274;7.128;2023-03-23T06:24:45;3.28;;;2.58;;
12151;SDS011;6139;51.274;7.128;2023-03-23T06:25:52;2.80;;;2.30;;
12151;SDS011;6139;51.274;7.128;2023-03-23T06:26:56;4.35;;;2.92;;
12151;SDS011;6139;51.274;7.128;2023-03-23T06:27:57;3.95;;;2.83;;
12151;SDS011;6139;51.274;7.128;2023-03-23T06:29:00;5.15;;;3.03;;
12151;SDS011;6139;51.274;7.128;2023-03-23T06:30:04;3.47;;;2.90;;
12151;SDS011;6139;51.274;7.128;2023-03-23T06:31:07;5.40;;;2.53;;
12151;SDS011;6139;51.274;7.128;2023-03-23T06:32:09;2.60;;;2.40;;
12151;SDS011;6139;51.274;7.128;2023-03-23T06:33:16;3.22;;;2.90;;
12151;SDS011;6139;51.274;7.128;2023-03-23T06:34:36;4.38;;;2.70;;
12151;SDS011;6139;51.274;7.128;2023-03-23T06:35:49;2.50;;;2.30;;
12151;SDS011;6139;51.274;7.128;2023-03-23T06:37:09;3.45;;;2.58;;
12151;SDS011;6139;51.274;7.128;2023-03-23T06:38:31;3.58;;;2.60;;
12151;SDS011;6139;51.274;7.128;2023-03-23T06:39:33;2.90;;;2.50;;
12151;SDS011;6139;51.274;7.128;2023-03-23T06:40:57;3.97;;;2.40;;
12151;SDS011;6139;51.274;7.128;2023-03-23T06:42:01;4.95;;;2.72;;
12151;SDS011;6139;51.274;7.128;2023-03-23T06:43:07;2.60;;;2.40;;
12151;SDS011;6139;51.274;7.128;2023-03-23T06:44:20;3.55;;;2.72;;
12151;SDS011;6139;51.274;7.128;2023-03-23T06:45:22;4.97;;;2.50;;
12151;SDS011;6139;51.274;7.128;2023-03-23T06:46:30;2.97;;;2.65;;
12151;SDS011;6139;51.274;7.128;2023-03-23T06:48:05;2.70;;;2.40;;
12151;SDS011;6139;51.274;7.128;2023-03-23T06:49:08;4.88;;;2.53;;
12151;SDS011;6139;51.274;7.128;2023-03-23T06:50:18;3.95;;;2.40;;